Time;durP1;ratioP1;P1;durP2;ratioP2;P2;SDS_P1;SDS_P2;PMS_P1;PMS_P2;Temp;Humidity;BMP_temperature;BMP_pressure;BME280_temperature;BME280_humidity;BME280_pressure;Samples;Min_cycle;Max_cycle;Signal;HPM_P1;HPM_P2
2024/02/07 00:00:07;;;;;;;6.22;1.63;;;6.30;99.90;;;;;;5049512;28;20206;-71
2024/02/07 00:02:32;;;;;;;9.45;1.45;;;6.30;99.90;;;;;;5049609;28;20079;-71
2024/02/07 00:04:58;;;;;;;6.80;1.23;;;6.30;99.90;;;;;;5047314;28;20069;-71
2024/02/07 00:07:24;;;;;;;7.10;1.38;;;6.20;99.90;;;;;;5046578;28;20040;-71
2024/02/07 00:09:49;;;;;;;6.75;1.48;;;6.20;99.90;;;;;;5049970;28;20025;-71
2024/02/07 00:12:15;;;;;;;9.68;1.52;;;6.20;99.90;;;;;;5050468;28;20095;-71
2024/02/07 00:14:40;;;;;;;6.65;1.30;;;6.20;99.90;;;;;;5056847;28;20069;-71
2024/02/07 00:17:06;;;;;;;9.60;1.40;;;6.20;99.90;;;;;;5048278;28;20112;-71
2024/02/07 00:19:31;;;;;;;7.13;1.73;;;6.20;99.90;;;;;;5057626;28;20044;-71
2024/02/07 00:21:57;;;;;;;6.40;1.58;;;6.10;99.90;;;;;;5050702;28;20036;-71
2024/02/07 00:24:23;;;;;;;6.43;1.70;;;6.10;99.90;;;;;;5042607;28;20045;-71
2024/02/07 00:26:48;;;;;;;8.55;1.10;;;6.10;99.90;;;;;;5046729;28;20044;-71
2024/02/07 00:29:14;;;;;;;10.13;1.30;;;6.10;99.90;;;;;;5049487;28;20037;-71
2024/02/07 00:31:40;;;;;;;10.45;2.05;;;6.10;99.90;;;;;;5048958;28;20040;-71
2024/02/07 00:34:05;;;;;;;11.50;2.22;;;6.10;99.90;;;;;;5049298;28;20037;-71
2024/02/07 00:36:31;;;;;;;11.05;1.65;;;6.10;99.90;;;;;;5047319;28;20033;-71
2024/02/07 00:38:56;;;;;;;8.27;1.88;;;6.10;99.90;;;;;;5048641;28;20480;-71
2024/02/07 00:41:23;;;;;;;12.77;1.40;;;6.10;99.90;;;;;;5050306;28;20036;-71
2024/02/07 00:43:50;;;;;;;7.72;1.40;;;6.10;99.90;;;;;;5041032;28;20053;-71
2024/02/07 00:46:16;;;;;;;7.35;1.30;;;6.10;99.90;;;;;;5046358;28;20048;-71
2024/02/07 00:48:42;;;;;;;9.35;1.20;;;6.00;99.90;;;;;;5048579;28;20037;-71
2024/02/07 00:51:08;;;;;;;11.15;1.20;;;6.00;99.90;;;;;;5048803;28;20072;-71
2024/02/07 00:53:34;;;;;;;8.85;1.35;;;6.00;99.90;;;;;;5049232;28;20496;-71
2024/02/07 00:56:00;;;;;;;11.73;1.63;;;6.00;99.90;;;;;;5048754;28;20029;-71
2024/02/07 00:58:26;;;;;;;11.68;1.52;;;6.00;99.90;;;;;;5048410;28;20043;-71
2024/02/07 01:00:52;;;;;;;7.72;1.30;;;6.00;99.90;;;;;;5031830;28;20041;-71
2024/02/07 01:03:18;;;;;;;10.20;1.38;;;6.00;99.90;;;;;;5048803;28;20441;-71
2024/02/07 01:05:43;;;;;;;7.18;1.42;;;5.90;99.90;;;;;;5043273;28;20128;-71
2024/02/07 01:08:09;;;;;;;10.63;1.77;;;5.90;99.90;;;;;;5040711;28;20435;-71
2024/02/07 01:10:36;;;;;;;7.80;1.52;;;5.90;99.90;;;;;;5050219;28;20048;-71
2024/02/07 01:13:02;;;;;;;9.10;1.30;;;5.80;99.90;;;;;;5050001;28;20094;-71
2024/02/07 01:15:28;;;;;;;10.65;1.42;;;5.70;99.90;;;;;;5048847;28;20041;-71
2024/02/07 01:17:54;;;;;;;7.57;1.60;;;5.70;99.90;;;;;;5041146;28;20048;-71
2024/02/07 01:20:20;;;;;;;10.43;1.60;;;5.70;99.90;;;;;;5050067;28;20049;-71
2024/02/07 01:22:45;;;;;;;7.13;1.30;;;5.60;99.90;;;;;;5047868;28;20408;-71
2024/02/07 01:25:11;;;;;;;15.13;1.95;;;5.60;99.90;;;;;;5041397;28;20128;-71
2024/02/07 01:27:37;;;;;;;11.23;1.75;;;5.60;99.90;;;;;;5042461;28;20041;-71
2024/02/07 01:30:04;;;;;;;6.40;1.30;;;5.50;99.90;;;;;;5048469;28;20037;-71
2024/02/07 01:32:30;;;;;;;6.15;1.02;;;5.50;99.90;;;;;;5050013;28;20047;-71
2024/02/07 01:34:55;;;;;;;10.38;1.98;;;5.50;99.90;;;;;;5049516;28;20120;-71
2024/02/07 01:37:21;;;;;;;8.90;1.67;;;5.50;99.90;;;;;;5041625;28;20578;-71
2024/02/07 01:39:46;;;;;;;10.38;1.48;;;5.50;99.90;;;;;;5048112;28;20499;-71
2024/02/07 01:42:12;;;;;;;11.95;1.75;;;5.50;99.90;;;;;;5049664;28;20040;-71
2024/02/07 01:44:38;;;;;;;8.57;1.75;;;5.50;99.90;;;;;;5047685;28;20087;-71
2024/02/07 01:47:13;;;;;;;6.47;1.48;;;5.40;99.90;;;;;;5042571;28;20599;-71
2024/02/07 01:49:42;;;;;;;8.60;1.40;;;5.40;99.90;;;;;;5050553;28;20362;-71
2024/02/07 01:52:10;;;;;;;7.72;1.27;;;5.50;99.90;;;;;;5049947;28;20044;-71
2024/02/07 01:54:37;;;;;;;12.25;1.58;;;5.50;99.90;;;;;;5044301;28;20049;-71
2024/02/07 01:57:03;;;;;;;14.13;1.75;;;5.50;99.90;;;;;;5049275;28;20416;-71
2024/02/07 01:59:30;;;;;;;8.65;1.30;;;5.40;99.90;;;;;;5051264;28;20049;-71
2024/02/07 02:01:56;;;;;;;7.97;1.30;;;5.50;99.90;;;;;;5053128;28;20504;-71
2024/02/07 02:04:22;;;;;;;13.23;1.77;;;5.50;99.90;;;;;;5051460;28;20041;-71
2024/02/07 02:06:47;;;;;;;7.70;1.10;;;5.50;99.90;;;;;;5050123;28;20041;-71
2024/02/07 02:09:13;;;;;;;8.82;1.75;;;5.40;99.90;;;;;;5046962;28;20041;-71
2024/02/07 02:11:41;;;;;;;9.60;1.75;;;5.00;99.90;;;;;;5051797;28;20033;-71
2024/02/07 02:14:07;;;;;;;8.32;1.50;;;5.40;99.90;;;;;;5053256;28;20060;-71
2024/02/07 02:16:33;;;;;;;6.72;1.33;;;5.40;99.90;;;;;;5051384;28;20741;-71
2024/02/07 02:18:59;;;;;;;6.55;1.30;;;5.40;99.90;;;;;;5049135;28;20037;-71
2024/02/07 02:21:27;;;;;;;9.40;1.23;;;5.40;99.90;;;;;;5051038;28;20041;-71
2024/02/07 02:24:14;;;;;;;11.20;1.95;;;5.40;99.90;;;;;;5046585;28;20081;-71
2024/02/07 02:27:00;;;;;;;8.63;1.55;;;5.40;99.90;;;;;;5051594;28;20072;-71
2024/02/07 02:29:36;;;;;;;10.25;1.42;;;5.40;99.90;;;;;;5051499;28;20504;-71
2024/02/07 02:32:03;;;;;;;8.02;1.42;;;5.40;99.90;;;;;;5050599;28;20051;-71
2024/02/07 02:34:30;;;;;;;7.15;1.23;;;5.50;99.90;;;;;;5052240;28;20044;-71
2024/02/07 02:36:58;;;;;;;13.45;1.40;;;5.40;99.90;;;;;;5051468;28;20029;-71
2024/02/07 02:39:30;;;;;;;10.60;1.40;;;5.30;99.90;;;;;;5048696;28;20118;-71
2024/02/07 02:41:57;;;;;;;14.45;2.10;;;5.40;99.90;;;;;;5050789;28;20396;-71
2024/02/07 02:44:25;;;;;;;12.23;1.42;;;5.40;99.90;;;;;;5050204;28;20048;-71
2024/02/07 02:46:51;;;;;;;7.68;1.60;;;5.40;99.90;;;;;;5060378;28;20036;-71
2024/02/07 02:49:16;;;;;;;7.00;1.25;;;5.40;99.90;;;;;;5051917;28;20111;-71
2024/02/07 02:51:42;;;;;;;8.95;1.40;;;5.40;99.90;;;;;;5061579;28;20565;-71
2024/02/07 02:54:08;;;;;;;12.60;1.30;;;5.50;99.90;;;;;;5047176;28;20041;-71
2024/02/07 02:56:34;;;;;;;9.25;1.63;;;5.50;99.90;;;;;;5051717;28;20047;-71
2024/02/07 02:59:05;;;;;;;7.25;1.30;;;5.60;99.90;;;;;;5033514;28;20392;-71
2024/02/07 03:01:31;;;;;;;7.97;1.40;;;5.50;99.90;;;;;;5051923;28;20116;-71
2024/02/07 03:03:57;;;;;;;6.97;1.23;;;5.60;99.90;;;;;;5048038;28;20048;-71
2024/02/07 03:06:29;;;;;;;11.25;1.90;;;5.60;99.90;;;;;;5046685;28;20037;-71
2024/02/07 03:09:19;;;;;;;14.32;1.60;;;5.60;99.90;;;;;;5042896;28;20036;-71
2024/02/07 03:11:45;;;;;;;9.55;1.63;;;5.60;99.90;;;;;;5051568;28;20041;-71
2024/02/07 03:14:11;;;;;;;9.40;1.40;;;5.60;99.90;;;;;;5057321;28;20250;-71
2024/02/07 03:16:36;;;;;;;10.52;1.88;;;5.60;99.90;;;;;;5054472;28;20106;-71
2024/02/07 03:19:02;;;;;;;10.85;2.03;;;5.60;99.90;;;;;;5050067;28;20040;-71
2024/02/07 03:21:28;;;;;;;9.60;1.50;;;5.60;99.90;;;;;;5050770;28;20041;-71
2024/02/07 03:23:56;;;;;;;11.00;1.80;;;5.60;99.90;;;;;;5051159;28;20060;-71
2024/02/07 03:26:23;;;;;;;10.35;1.40;;;5.60;99.90;;;;;;5051637;28;20476;-71
2024/02/07 03:28:54;;;;;;;12.65;2.22;;;5.60;99.90;;;;;;5050257;28;20059;-71
2024/02/07 03:31:20;;;;;;;11.27;1.60;;;5.60;99.90;;;;;;5049940;28;20048;-71
2024/02/07 03:33:47;;;;;;;14.75;2.47;;;5.60;99.90;;;;;;5048663;28;20037;-71
2024/02/07 03:36:13;;;;;;;5.07;1.20;;;5.60;99.90;;;;;;5051420;28;20056;-71
2024/02/07 03:38:39;;;;;;;7.75;1.45;;;5.60;99.90;;;;;;5056222;28;20052;-71
2024/02/07 03:41:05;;;;;;;12.73;1.92;;;5.60;99.90;;;;;;5051322;28;20037;-71
2024/02/07 03:43:33;;;;;;;13.35;1.65;;;5.60;99.90;;;;;;5049472;28;20053;-71
2024/02/07 03:46:00;;;;;;;8.90;1.45;;;5.60;99.90;;;;;;5046863;28;20542;-71
2024/02/07 03:48:26;;;;;;;9.55;1.80;;;5.70;99.90;;;;;;5050679;28;20116;-71
2024/02/07 03:50:53;;;;;;;13.95;1.70;;;5.70;99.90;;;;;;5050782;28;20044;-71
2024/02/07 03:53:19;;;;;;;16.92;1.92;;;5.70;99.90;;;;;;5050900;28;20512;-71
2024/02/07 03:55:47;;;;;;;10.45;1.58;;;5.70;99.90;;;;;;5048181;28;20036;-71
2024/02/07 03:58:13;;;;;;;12.50;1.73;;;5.70;99.90;;;;;;5050620;28;20073;-71
2024/02/07 04:00:39;;;;;;;12.93;1.63;;;5.70;99.90;;;;;;5050612;28;20461;-71
2024/02/07 04:03:04;;;;;;;12.00;1.60;;;5.70;99.90;;;;;;5046085;28;20045;-71
2024/02/07 04:05:30;;;;;;;13.63;1.90;;;5.70;99.90;;;;;;5042052;28;20065;-71
2024/02/07 04:07:55;;;;;;;10.07;1.38;;;5.70;99.90;;;;;;5048883;28;20298;-71
2024/02/07 04:10:23;;;;;;;11.20;1.75;;;5.80;99.90;;;;;;5050540;28;20049;-71
2024/02/07 05:15:45;;;;;;;28.85;4.95;;;5.80;99.90;;;;;;5049311;28;20045;-70
2024/02/07 05:18:11;;;;;;;24.98;4.10;;;5.80;99.90;;;;;;5048582;28;20389;-71
2024/02/07 05:20:36;;;;;;;19.20;3.17;;;5.80;99.90;;;;;;5048466;28;20052;-71
2024/02/07 05:23:02;;;;;;;23.20;3.38;;;5.80;99.90;;;;;;5050193;28;20044;-70
2024/02/07 05:25:32;;;;;;;21.40;3.72;;;5.80;99.90;;;;;;5048708;28;20458;-70
2024/02/07 05:27:58;;;;;;;20.23;3.17;;;5.80;99.90;;;;;;5045843;28;20033;-70
2024/02/07 05:30:24;;;;;;;22.35;3.22;;;5.80;99.90;;;;;;5051887;28;20041;-70
2024/02/07 05:32:49;;;;;;;26.02;3.13;;;5.80;99.90;;;;;;5052625;28;20123;-70
2024/02/07 05:35:15;;;;;;;24.38;3.58;;;5.80;99.90;;;;;;5051476;28;20036;-70
2024/02/07 05:37:41;;;;;;;21.08;3.33;;;5.80;99.90;;;;;;5051390;28;20044;-70
2024/02/07 05:40:07;;;;;;;15.27;3.55;;;5.80;99.90;;;;;;5053357;28;20223;-70
2024/02/07 05:42:32;;;;;;;24.38;3.13;;;5.80;99.90;;;;;;5051846;28;20163;-71
2024/02/07 05:44:58;;;;;;;23.73;3.50;;;5.70;99.90;;;;;;5051875;28;20068;-70
2024/02/07 05:47:24;;;;;;;21.73;3.35;;;5.70;99.90;;;;;;5043466;28;20040;-70
2024/02/07 05:49:49;;;;;;;18.70;2.95;;;5.70;99.90;;;;;;5051798;28;20444;-70
2024/02/07 05:52:15;;;;;;;26.55;3.25;;;5.70;99.90;;;;;;5051803;28;20037;-70
2024/02/07 05:54:41;;;;;;;23.52;3.38;;;5.70;99.90;;;;;;5051728;28;20473;-71
2024/02/07 05:57:08;;;;;;;23.38;3.33;;;5.70;99.90;;;;;;5054223;28;20064;-70
2024/02/07 05:59:34;;;;;;;21.35;3.63;;;5.70;99.90;;;;;;5051039;28;20037;-70
2024/02/07 06:02:02;;;;;;;22.90;2.80;;;5.70;99.90;;;;;;5048417;28;20505;-70
2024/02/07 06:04:27;;;;;;;23.85;3.28;;;5.60;99.90;;;;;;5044518;28;20083;-70
2024/02/07 06:06:53;;;;;;;23.58;3.33;;;5.60;99.90;;;;;;5051580;28;20068;-70
2024/02/07 06:09:19;;;;;;;24.10;4.18;;;5.60;99.90;;;;;;5045280;28;20034;-70
2024/02/07 06:11:45;;;;;;;16.42;2.92;;;5.60;99.90;;;;;;5050055;28;20048;-70
2024/02/07 06:14:12;;;;;;;19.75;3.53;;;5.50;99.90;;;;;;5038050;28;20500;-70
2024/02/07 06:16:38;;;;;;;18.05;3.45;;;5.60;99.90;;;;;;5047272;28;20052;-70
2024/02/07 06:19:04;;;;;;;22.35;3.28;;;5.60;99.90;;;;;;5050160;28;20218;-70
2024/02/07 06:21:30;;;;;;;20.55;3.05;;;5.50;99.90;;;;;;5046105;28;20053;-70
2024/02/07 06:23:56;;;;;;;14.18;2.63;;;5.50;99.90;;;;;;5044610;28;20045;-70
2024/02/07 06:26:22;;;;;;;16.73;3.30;;;5.50;99.90;;;;;;5045460;28;20128;-70
2024/02/07 06:28:48;;;;;;;22.33;3.50;;;5.50;99.90;;;;;;5045755;28;20036;-71
2024/02/07 06:31:14;;;;;;;24.88;3.80;;;5.50;99.90;;;;;;5048692;28;20036;-71
2024/02/07 06:33:39;;;;;;;24.48;2.90;;;5.50;99.90;;;;;;5041318;28;20041;-71
2024/02/07 06:36:06;;;;;;;20.08;3.45;;;5.50;99.90;;;;;;5047707;28;20128;-71
2024/02/07 06:38:32;;;;;;;18.35;2.72;;;5.50;99.90;;;;;;5046911;28;20087;-71
2024/02/07 06:40:58;;;;;;;20.90;2.50;;;5.50;99.90;;;;;;5042434;28;20037;-71
2024/02/07 06:43:24;;;;;;;17.83;2.70;;;5.50;99.90;;;;;;5034228;28;20040;-69
2024/02/07 06:45:49;;;;;;;21.17;3.63;;;5.40;99.90;;;;;;5045029;28;20120;-71
2024/02/07 06:48:15;;;;;;;15.48;2.60;;;5.50;99.90;;;;;;5043221;28;20037;-71
2024/02/07 06:50:41;;;;;;;18.38;2.95;;;5.40;99.90;;;;;;5042103;28;20032;-71
2024/02/07 06:53:06;;;;;;;21.20;3.58;;;5.40;99.90;;;;;;5017014;28;20137;-72
2024/02/07 06:55:32;;;;;;;18.85;2.83;;;5.40;99.90;;;;;;5039643;28;20471;-72
2024/02/07 06:57:58;;;;;;;21.58;3.15;;;5.40;99.90;;;;;;5049230;28;20052;-72
2024/02/07 07:00:24;;;;;;;15.90;2.83;;;5.40;99.90;;;;;;5051023;28;20119;-72
2024/02/07 07:02:52;;;;;;;16.45;3.25;;;5.40;99.90;;;;;;5053463;28;20071;-72
2024/02/07 07:05:18;;;;;;;22.63;2.90;;;5.40;99.90;;;;;;5044406;28;20033;-72
2024/02/07 07:07:44;;;;;;;16.73;3.08;;;5.40;99.90;;;;;;5048099;28;20067;-71
2024/02/07 07:10:09;;;;;;;19.10;3.00;;;5.40;99.90;;;;;;5049993;28;20041;-71
2024/02/07 07:12:35;;;;;;;21.58;3.17;;;5.40;99.90;;;;;;5050845;28;20037;-72
2024/02/07 07:15:01;;;;;;;22.95;5.47;;;5.40;99.90;;;;;;5050322;28;20041;-72
2024/02/07 07:17:26;;;;;;;35.42;16.35;;;5.40;99.90;;;;;;5050218;28;20090;-72
2024/02/07 07:19:52;;;;;;;65.03;36.05;;;5.40;99.90;;;;;;5049594;28;20479;-72
2024/02/07 07:22:17;;;;;;;49.08;28.02;;;5.40;99.90;;;;;;5049465;28;20118;-72
2024/02/07 07:24:44;;;;;;;31.20;16.17;;;5.40;99.90;;;;;;5052061;28;20844;-73
2024/02/07 07:27:11;;;;;;;32.92;16.15;;;5.40;99.90;;;;;;5050459;28;20045;-72
2024/02/07 07:29:36;;;;;;;24.60;9.38;;;5.40;99.90;;;;;;5045736;28;20485;-72
2024/02/07 07:32:04;;;;;;;23.50;6.90;;;5.40;99.90;;;;;;5054430;28;20040;-72
2024/02/07 07:34:30;;;;;;;18.33;5.35;;;5.40;99.90;;;;;;5047574;28;20131;-72
2024/02/07 07:36:56;;;;;;;19.30;4.50;;;5.40;99.90;;;;;;5050427;28;20204;-72
2024/02/07 07:39:21;;;;;;;21.10;5.63;;;5.40;99.90;;;;;;5049950;28;20044;-72
2024/02/07 07:41:47;;;;;;;41.22;19.27;;;5.40;99.90;;;;;;5048938;28;20037;-72
2024/02/07 07:44:13;;;;;;;102.50;52.50;;;5.40;99.90;;;;;;5045328;28;20040;-72
2024/02/07 07:46:38;;;;;;;156.75;77.35;;;5.40;99.90;;;;;;5048473;28;20040;-71
2024/02/07 07:49:04;;;;;;;218.40;107.70;;;5.40;99.90;;;;;;5044687;28;20112;-72
2024/02/07 07:51:29;;;;;;;129.63;72.45;;;5.40;99.90;;;;;;5047250;28;20086;-72
2024/02/07 07:53:55;;;;;;;54.13;33.78;;;5.40;99.90;;;;;;5047237;28;20050;-72
2024/02/07 07:56:21;;;;;;;30.23;15.43;;;5.40;99.90;;;;;;5035717;28;20060;-71
2024/02/07 07:58:49;;;;;;;26.52;8.35;;;5.40;99.90;;;;;;5049319;28;20072;-72
2024/02/07 08:01:19;;;;;;;20.83;5.28;;;5.40;99.90;;;;;;5030487;28;20060;-72
2024/02/07 08:03:45;;;;;;;18.77;4.43;;;5.40;99.90;;;;;;5043268;28;20041;-72
2024/02/07 08:06:11;;;;;;;21.60;4.80;;;5.40;99.90;;;;;;5043345;28;20103;-72
2024/02/07 08:08:37;;;;;;;24.70;11.63;;;5.40;99.90;;;;;;5049802;28;20525;-70
2024/02/07 08:11:02;;;;;;;27.70;9.90;;;5.40;99.90;;;;;;5045341;28;20044;-70
2024/02/07 08:13:28;;;;;;;21.08;6.70;;;5.40;99.90;;;;;;5047193;28;20069;-71
2024/02/07 08:15:54;;;;;;;16.38;5.93;;;5.30;99.90;;;;;;5048637;28;20041;-71
2024/02/07 08:18:19;;;;;;;20.38;4.28;;;5.30;99.90;;;;;;5045054;28;20064;-62
2024/02/07 08:20:45;;;;;;;19.20;4.50;;;5.40;99.90;;;;;;5047336;28;20577;-62
2024/02/07 08:23:11;;;;;;;19.08;4.63;;;5.40;99.90;;;;;;5040796;28;20052;-62
2024/02/07 08:25:37;;;;;;;20.48;4.40;;;5.40;99.90;;;;;;5044325;28;20605;-62
2024/02/07 08:28:03;;;;;;;17.65;4.20;;;5.50;99.90;;;;;;5042565;28;20037;-62
2024/02/07 08:30:29;;;;;;;18.75;7.03;;;5.50;99.90;;;;;;5044235;28;20094;-62
2024/02/07 08:32:55;;;;;;;21.10;10.45;;;5.50;99.90;;;;;;5054166;28;20036;-62
2024/02/07 08:35:21;;;;;;;25.45;11.80;;;5.50;99.90;;;;;;5057478;28;20063;-62
2024/02/07 08:37:47;;;;;;;18.08;5.85;;;5.50;99.90;;;;;;5045906;28;20036;-62
2024/02/07 08:40:13;;;;;;;14.32;4.05;;;5.50;99.90;;;;;;5050245;28;20041;-62
2024/02/07 08:42:39;;;;;;;35.90;17.40;;;5.50;99.90;;;;;;5048287;28;20108;-62
2024/02/07 08:45:05;;;;;;;102.10;56.40;;;5.60;99.90;;;;;;5049864;28;20036;-62
2024/02/07 08:47:30;;;;;;;56.10;31.67;;;5.50;99.90;;;;;;5045442;28;20090;-62
2024/02/07 08:49:57;;;;;;;34.58;14.32;;;5.60;99.90;;;;;;5042052;28;20032;-62
2024/02/07 08:52:22;;;;;;;28.63;12.70;;;5.60;99.90;;;;;;5049821;28;20124;-62
2024/02/07 08:54:48;;;;;;;28.10;14.98;;;5.60;99.90;;;;;;5040179;28;20116;-62
2024/02/07 08:57:14;;;;;;;21.95;9.68;;;5.60;99.90;;;;;;5046304;28;20044;-61
2024/02/07 08:59:40;;;;;;;23.80;11.98;;;5.60;99.90;;;;;;5044400;28;20041;-62
2024/02/07 09:02:07;;;;;;;32.92;18.52;;;5.60;99.90;;;;;;5054204;28;20043;-62
2024/02/07 09:04:32;;;;;;;23.17;10.90;;;5.70;99.90;;;;;;5052478;28;20128;-62
2024/02/07 09:06:58;;;;;;;30.73;14.75;;;5.70;99.90;;;;;;5053781;28;20033;-62
2024/02/07 09:09:24;;;;;;;31.52;18.40;;;5.70;99.90;;;;;;5053595;28;20064;-62
2024/02/07 09:11:50;;;;;;;24.80;9.02;;;5.70;99.90;;;;;;5053665;28;20033;-62
2024/02/07 09:14:15;;;;;;;19.60;4.80;;;5.70;99.90;;;;;;5054422;28;20072;-62
2024/02/07 09:16:41;;;;;;;15.93;3.22;;;5.70;99.90;;;;;;5067513;28;20041;-62
2024/02/07 09:19:06;;;;;;;18.35;2.72;;;5.80;99.90;;;;;;5052493;28;20547;-62
2024/02/07 09:21:32;;;;;;;21.63;4.55;;;5.80;99.90;;;;;;5054091;28;20041;-62
2024/02/07 09:23:59;;;;;;;17.65;4.22;;;5.90;99.90;;;;;;5052331;28;20053;-62
2024/02/07 09:26:29;;;;;;;10.27;3.85;;;5.90;99.90;;;;;;5053262;28;20492;-62
2024/02/07 09:28:55;;;;;;;22.92;5.18;;;5.90;99.90;;;;;;5053929;28;20152;-62
2024/02/07 09:31:20;;;;;;;15.38;4.53;;;5.90;99.90;;;;;;5053537;28;20115;-62
2024/02/07 09:33:46;;;;;;;16.63;3.80;;;6.00;99.90;;;;;;5054025;28;20037;-62
2024/02/07 09:36:11;;;;;;;16.75;2.60;;;6.00;99.90;;;;;;5052279;28;20484;-62
2024/02/07 09:38:38;;;;;;;19.58;2.97;;;6.10;99.90;;;;;;5049375;28;20045;-62
2024/02/07 09:41:04;;;;;;;19.50;2.70;;;6.10;99.90;;;;;;5048746;28;20127;-62
2024/02/07 09:43:32;;;;;;;43.40;22.33;;;6.10;99.90;;;;;;5048208;28;20040;-62
2024/02/07 09:45:58;;;;;;;93.47;50.00;;;6.20;99.90;;;;;;5053631;28;20052;-62
2024/02/07 09:48:28;;;;;;;71.05;39.00;;;6.20;99.90;;;;;;5053057;28;20036;-62
2024/02/07 09:50:55;;;;;;;36.58;21.35;;;6.20;99.90;;;;;;5041492;28;20128;-62
2024/02/07 09:53:21;;;;;;;32.55;17.02;;;6.20;99.90;;;;;;5049214;28;20536;-62
2024/02/07 09:55:49;;;;;;;27.85;12.73;;;6.30;99.90;;;;;;5060191;28;20064;-62
2024/02/07 09:58:15;;;;;;;25.50;10.68;;;6.20;99.90;;;;;;5047431;28;20455;-62
2024/02/07 10:00:41;;;;;;;30.05;8.93;;;6.30;99.90;;;;;;5051798;28;20094;-62
2024/02/07 10:03:13;;;;;;;19.00;7.57;;;6.30;99.90;;;;;;5051403;28;20045;-62
2024/02/07 10:05:45;;;;;;;19.75;5.90;;;6.30;99.90;;;;;;5053039;28;20048;-62
2024/02/07 10:08:11;;;;;;;22.35;5.28;;;6.30;99.90;;;;;;5052866;28;20538;-62
2024/02/07 10:10:37;;;;;;;12.75;3.40;;;6.40;99.90;;;;;;5050005;28;20045;-62
2024/02/07 10:13:03;;;;;;;17.27;4.50;;;6.40;99.90;;;;;;5052358;28;20372;-62
2024/02/07 10:15:30;;;;;;;18.85;5.60;;;6.50;99.90;;;;;;5050445;28;20119;-62
2024/02/07 10:17:56;;;;;;;15.30;5.75;;;6.50;99.90;;;;;;5058367;28;20040;-62
2024/02/07 10:20:21;;;;;;;17.77;4.22;;;6.60;99.90;;;;;;5062343;28;20527;-62
2024/02/07 10:22:47;;;;;;;14.82;2.80;;;6.60;99.90;;;;;;5052722;28;20032;-62
2024/02/07 10:25:14;;;;;;;17.25;2.90;;;6.60;99.90;;;;;;5052364;28;20040;-62
2024/02/07 10:27:40;;;;;;;19.25;3.25;;;6.70;99.90;;;;;;5052461;28;20048;-62
2024/02/07 10:30:08;;;;;;;15.70;3.72;;;6.70;99.90;;;;;;5052066;28;20029;-62
2024/02/07 10:32:35;;;;;;;12.80;3.15;;;6.70;99.90;;;;;;5049486;28;20114;-62
2024/02/07 10:35:02;;;;;;;12.95;3.30;;;6.80;99.90;;;;;;5043922;28;20499;-62
2024/02/07 10:37:27;;;;;;;25.05;3.53;;;6.80;99.90;;;;;;5045931;28;20037;-62
2024/02/07 10:40:01;;;;;;;14.63;3.78;;;6.80;99.90;;;;;;5044692;28;20124;-62
2024/02/07 10:42:26;;;;;;;12.75;3.42;;;6.90;99.90;;;;;;5047740;28;20041;-62
2024/02/07 10:45:13;;;;;;;13.00;3.10;;;6.90;99.90;;;;;;5042387;28;20037;-61
2024/02/07 10:47:39;;;;;;;19.83;4.13;;;7.00;99.90;;;;;;5047583;28;20124;-61
2024/02/07 10:50:08;;;;;;;19.75;5.55;;;7.00;99.90;;;;;;5045569;28;20112;-61
2024/02/07 10:52:34;;;;;;;15.30;4.47;;;7.00;99.90;;;;;;5060348;28;20036;-61
2024/02/07 10:55:00;;;;;;;12.07;3.22;;;7.00;99.90;;;;;;5052021;28;20436;-61
2024/02/07 10:57:38;;;;;;;14.00;2.92;;;7.00;99.90;;;;;;5047207;28;20040;-61
2024/02/07 11:00:05;;;;;;;22.88;3.85;;;7.00;99.90;;;;;;5051857;28;20670;-61
2024/02/07 11:02:32;;;;;;;12.75;3.35;;;6.90;99.90;;;;;;5046135;28;20080;-61
2024/02/07 11:04:59;;;;;;;15.63;3.00;;;6.90;99.90;;;;;;5051732;28;20040;-61
2024/02/07 11:07:26;;;;;;;13.85;2.65;;;6.90;99.90;;;;;;5043219;28;20033;-61
2024/02/07 11:09:54;;;;;;;11.82;2.42;;;6.90;99.90;;;;;;5052126;28;20045;-61
2024/02/07 11:12:20;;;;;;;14.15;2.33;;;6.90;99.90;;;;;;5042878;28;20493;-61
2024/02/07 11:14:48;;;;;;;10.75;2.13;;;6.80;99.90;;;;;;5045587;28;20040;-61
2024/02/07 11:17:14;;;;;;;11.02;2.78;;;6.80;99.90;;;;;;5051752;28;20048;-61
2024/02/07 11:19:41;;;;;;;15.65;3.00;;;6.80;99.90;;;;;;5051378;28;20041;-61
2024/02/07 11:22:18;;;;;;;14.88;2.75;;;6.80;99.90;;;;;;5044798;28;20102;-61
2024/02/07 11:24:45;;;;;;;12.48;3.00;;;6.80;99.90;;;;;;5041689;28;20052;-61
2024/02/07 11:27:12;;;;;;;16.67;2.70;;;6.90;99.90;;;;;;5049581;28;20036;-61
2024/02/07 11:29:38;;;;;;;169.88;10.63;;;6.90;99.90;;;;;;5047094;28;20511;-61
2024/02/07 11:32:05;;;;;;;95.38;5.88;;;7.00;99.90;;;;;;5042859;28;20033;-61
2024/02/07 11:34:31;;;;;;;19.98;3.42;;;7.00;99.90;;;;;;5038432;28;20120;-61
2024/02/07 11:37:03;;;;;;;20.95;4.57;;;7.00;99.90;;;;;;5040370;28;20042;-61
2024/02/07 11:39:38;;;;;;;18.60;8.13;;;7.10;99.90;;;;;;5041933;28;20056;-61
2024/02/07 11:42:15;;;;;;;21.63;7.47;;;7.20;99.90;;;;;;5048060;28;20095;-60
2024/02/07 11:44:57;;;;;;;20.33;5.40;;;7.20;99.90;;;;;;5061377;28;20040;-61
2024/02/07 11:47:27;;;;;;;17.42;4.72;;;7.30;99.90;;;;;;5044382;28;20033;-61
2024/02/07 11:50:04;;;;;;;15.05;4.07;;;7.40;99.90;;;;;;5038824;28;20397;-61
2024/02/07 11:52:32;;;;;;;12.98;6.63;;;7.40;99.90;;;;;;5050158;28;20044;-60
2024/02/07 11:55:07;;;;;;;15.32;3.13;;;7.50;99.90;;;;;;5039584;28;20059;-61
2024/02/07 11:57:33;;;;;;;7.03;2.10;;;7.60;99.90;;;;;;5042573;28;20037;-61
2024/02/07 12:00:05;;;;;;;11.68;2.00;;;7.60;99.90;;;;;;5040684;28;20044;-61
2024/02/07 12:02:30;;;;;;;10.73;2.08;;;7.60;99.90;;;;;;5026463;28;20068;-61
2024/02/07 12:04:57;;;;;;;11.68;2.00;;;7.70;99.90;;;;;;5051093;28;20091;-61
2024/02/07 12:07:24;;;;;;;16.40;2.20;;;7.70;99.90;;;;;;5042359;28;20033;-61
2024/02/07 12:09:50;;;;;;;10.63;2.25;;;7.70;99.90;;;;;;5041468;28;20029;-61
2024/02/07 12:12:16;;;;;;;11.90;2.33;;;7.20;99.90;;;;;;5037269;28;20036;-61
2024/02/07 12:14:42;;;;;;;8.20;2.00;;;7.80;99.90;;;;;;5043009;28;20084;-60
2024/02/07 12:17:09;;;;;;;12.13;1.83;;;7.80;99.90;;;;;;5042170;28;20041;-61
2024/02/07 12:19:41;;;;;;;13.93;1.90;;;7.90;99.90;;;;;;5038937;28;20041;-60
2024/02/07 12:22:07;;;;;;;12.23;1.63;;;7.90;99.90;;;;;;5039790;28;20829;-61
2024/02/07 12:24:34;;;;;;;13.43;2.08;;;7.90;99.90;;;;;;5041112;28;20041;-60
2024/02/07 12:27:13;;;;;;;13.77;1.95;;;7.90;99.90;;;;;;5041997;28;20139;-61
2024/02/07 12:29:40;;;;;;;11.95;2.25;;;7.90;99.90;;;;;;5042051;28;20041;-60
2024/02/07 12:32:06;;;;;;;13.05;2.25;;;7.90;99.90;;;;;;5040913;28;20079;-61
2024/02/07 12:34:32;;;;;;;16.52;2.40;;;7.50;99.90;;;;;;5041514;28;20037;-59
2024/02/07 12:36:58;;;;;;;11.30;1.70;;;8.10;99.90;;;;;;5038647;28;20045;-60
2024/02/07 12:39:23;;;;;;;12.65;1.77;;;8.10;99.90;;;;;;5039652;28;20041;-61
2024/02/07 12:41:49;;;;;;;12.35;1.65;;;8.10;99.90;;;;;;5043053;28;20431;-61
2024/02/07 12:44:15;;;;;;;13.10;1.83;;;8.10;99.90;;;;;;5049804;28;20108;-61
2024/02/07 12:46:43;;;;;;;11.30;2.60;;;8.10;99.90;;;;;;5046028;28;20485;-61
2024/02/07 12:49:09;;;;;;;9.15;1.85;;;8.20;99.90;;;;;;5042910;28;20124;-60
2024/02/07 12:51:35;;;;;;;13.35;2.13;;;8.30;99.90;;;;;;5036339;28;20422;-59
2024/02/07 12:54:01;;;;;;;11.23;1.98;;;8.30;99.90;;;;;;5042316;28;20040;-59
2024/02/07 12:56:27;;;;;;;14.43;2.38;;;8.30;99.90;;;;;;5043713;28;20037;-60
2024/02/07 12:58:52;;;;;;;7.97;1.77;;;8.40;99.90;;;;;;5042299;28;20044;-60
2024/02/07 13:01:22;;;;;;;11.20;1.80;;;8.40;99.90;;;;;;5036921;28;20037;-60
2024/02/07 13:03:47;;;;;;;10.10;1.90;;;8.50;99.90;;;;;;5039417;28;20041;-60
2024/02/07 13:06:14;;;;;;;13.95;2.45;;;8.50;99.90;;;;;;5040932;28;20108;-60
2024/02/07 13:08:40;;;;;;;10.27;1.92;;;8.40;99.90;;;;;;5040439;28;20104;-61
2024/02/07 13:11:05;;;;;;;9.23;1.75;;;8.40;99.90;;;;;;5042846;28;20118;-60
2024/02/07 13:13:31;;;;;;;9.25;1.70;;;8.40;99.90;;;;;;5042647;28;20036;-60
2024/02/07 13:15:58;;;;;;;8.88;2.25;;;8.40;99.90;;;;;;5042397;28;20037;-60
2024/02/07 13:18:27;;;;;;;11.80;2.13;;;8.30;99.90;;;;;;5040392;28;20033;-60
2024/02/07 13:20:53;;;;;;;9.85;2.17;;;8.30;99.90;;;;;;5042619;28;20108;-61
2024/02/07 13:23:21;;;;;;;9.13;2.40;;;8.30;99.90;;;;;;5044223;28;20073;-60
2024/02/07 13:25:50;;;;;;;10.45;2.22;;;8.30;99.90;;;;;;5042775;28;20067;-60
2024/02/07 13:28:16;;;;;;;14.07;2.00;;;8.30;99.90;;;;;;5037657;28;20044;-60
2024/02/07 13:30:42;;;;;;;10.23;2.40;;;8.30;99.90;;;;;;5043350;28;20040;-61
2024/02/07 13:33:07;;;;;;;9.68;1.88;;;8.30;99.90;;;;;;5043356;28;20037;-60
2024/02/07 13:35:33;;;;;;;14.63;2.97;;;8.30;99.90;;;;;;5042520;28;20037;-60
2024/02/07 13:38:00;;;;;;;13.05;2.00;;;8.30;99.90;;;;;;5042305;28;20128;-61
2024/02/07 13:40:26;;;;;;;13.60;2.97;;;8.30;99.90;;;;;;5041199;28;20037;-60
2024/02/07 13:42:53;;;;;;;9.05;1.80;;;8.30;99.90;;;;;;5041042;28;20033;-61
2024/02/07 13:45:19;;;;;;;11.45;1.95;;;8.30;99.90;;;;;;5040924;28;20098;-60
2024/02/07 13:47:48;;;;;;;9.38;1.70;;;8.30;99.90;;;;;;5041264;28;20041;-60